Terminal Aerodrome Forecast
Issued by NWS

Home | Current Version | Previous Version | Text Only | Print | Product List | Glossary On
Versions: 1 2 3 4 5 6 7 8 9 10 11 12 13 14 15 16 17 18 19
000
FTUS44 KBMX 230939 AAA
TAFMGM
TAF AMD
KMGM 230939Z 2310/2406 24005KT P6SM VCSH BKN050
     FM231200 29007KT P6SM VCSH OVC015
     FM231700 29010G18KT P6SM BKN025=

USA.gov is the U.S. government's official web portal to all federal, state and local government web resources and services.